Have a Safe July 4th! 

Flight Track Log - Related Links

Times and Time Zones

All times are in EDT time to prevent confusion due to time zone crossing. See the SWA34 flight status page for this flight to view local times or setup timezone preferences in your user account.

Time Position Orientation Groundspeed Altitude Reporting Facility
EDT Latitude Longitude Course Direction KTS MPH feet Rate Location/Type
Wed 08:15:01 PM 38.7650 -90.3386 56° Northeast 170 196 2,000  Level FAA TRACON SMA TRACON (SMA)
Wed 08:15:21 PM 38.7822 -90.3433 348° North 200 230 2,500 2,550 Climbing FAA TRACON SMA TRACON (SMA)
Wed 08:15:41 PM 38.8047 -90.3508 345° North 219 252 3,700 3,231 Climbing FAA TRACON SMA TRACON (SMA)
Wed 08:16:00 PM 38.8236 -90.3561 348° North 227 261 4,600 2,308 Climbing FAA TRACON SMA TRACON (SMA)
Wed 08:16:20 PM 38.8436 -90.3492 15° North 242 278 5,200 2,100 Climbing FAA TRACON SMA TRACON (SMA)
Wed 08:16:40 PM 38.8600 -90.3183 56° Northeast 280 322 6,000 2,780 Climbing FAA TRACON SMA TRACON (SMA)
Wed 08:17:01 PM 38.8606 -90.2856 89° East 299 344 7,100 3,366 Climbing FAA TRACON SMA TRACON (SMA)
Wed 08:17:21 PM 38.8586 -90.2525 94° East 305 351 8,300 3,692 Climbing FAA TRACON SMA TRACON (SMA)
Wed 08:17:40 PM 38.8553 -90.2192 97° East 307 353 9,500 3,077 Climbing FAA TRACON SMA TRACON (SMA)
Wed 08:18:00 PM 38.8514 -90.1764 97° East 313 360 10,300 2,049 Climbing FAA TRACON SMA TRACON (SMA)
Wed 08:18:21 PM 38.8486 -90.1400 96° East 329 379 10,900 1,902 Climbing FAA TRACON SMA TRACON (SMA)
Wed 08:18:41 PM 38.8447 -90.1014 97° East 349 402 11,600 1,846 Climbing FAA TRACON SMA TRACON (SMA)
Wed 08:19:00 PM 38.8403 -90.0506 96° East 371 427 12,100 1,692 Climbing FAA TRACON SMA TRACON (SMA)
Wed 08:19:20 PM 38.8367 -90.0072 96° East 391 450 12,700 1,950 Climbing FAA TRACON SMA TRACON (SMA)
Wed 08:19:40 PM 38.8325 -89.9633 97° East 406 467 13,400 2,195 Climbing FAA TRACON SMA TRACON (SMA)
Wed 08:20:01 PM 38.8283 -89.9064 95° East 416 479 14,200 2,488 Climbing FAA TRACON SMA TRACON (SMA)
Wed 08:20:21 PM 38.8233 -89.8603 98° East 425 489 15,100 2,462 Climbing FAA TRACON SMA TRACON (SMA)
Wed 08:20:40 PM 38.8206 -89.8136 94° East 430 495 15,800 2,154 Climbing FAA TRACON SMA TRACON (SMA)
Wed 08:21:00 PM 38.8131 -89.7536 99° East 440 506 16,500 1,950 Climbing FAA TRACON SMA TRACON (SMA)
Wed 08:21:20 PM 38.8103 -89.7047 94° East 448 516 17,100 1,800 Climbing FAA TRACON SMA TRACON (SMA)
Wed 08:21:40 PM 38.8064 -89.6550 96° East 455 524 17,700 1,692 Climbing FAA TRACON SMA TRACON (SMA)
Wed 08:21:59 PM 38.8022 -89.5919 95° East 464 534 18,200 1,692 Climbing FAA TRACON SMA TRACON (SMA)
Wed 08:22:19 PM 38.7975 -89.5400 97° East 472 543 18,800 1,610 Climbing FAA TRACON SMA TRACON (SMA)
Wed 08:22:40 PM 38.7936 -89.4881 95° East 477 549 19,300 1,463 Climbing FAA TRACON SMA TRACON (SMA)
Wed 08:23:00 PM 38.7942 -89.4211 89° East 487 560 19,800 1,231 Climbing FAA TRACON SMA TRACON (SMA)
Wed 08:23:19 PM 38.8008 -89.3669 81° East 498 573 20,100 1,231 Climbing FAA TRACON SMA TRACON (SMA)
Wed 08:23:39 PM 38.8089 -89.3122 79° East 507 583 20,600 1,756 Climbing FAA TRACON SMA TRACON (SMA)
Wed 08:24:00 PM 38.8186 -89.2428 80° East 513 590 21,300 1,756 Climbing FAA TRACON SMA TRACON (SMA)
Wed 08:24:20 PM 38.8267 -89.1869 79° East 518 596 21,800 1,500 Climbing FAA TRACON SMA TRACON (SMA)
Wed 08:24:40 PM 38.8350 -89.1303 79° East 524 603 22,300 1,385 Climbing FAA TRACON SMA TRACON (SMA)
Wed 08:24:59 PM 38.8408 -89.0731 83° East 527 606 22,700 1,371 Climbing FAA TRACON SMA TRACON (SMA)
Wed 08:25:15 PM 38.8456 -89.0886 291° West 524 603 23,100 1,792 Climbing Kansas City Center
Wed 08:26:16 PM 38.8697 -88.9106 80° East 539 620 25,000 1,587 Climbing Kansas City Center
Wed 08:27:16 PM 38.8939 -88.7208 81° East 542 624 26,300 1,512 Climbing Kansas City Center
Wed 08:28:19 PM 38.9194 -88.5156 81° East 550 633 28,100 1,678 Climbing Kansas City Center
Wed 08:29:14 PM 38.9625 -88.3283 73° East 555 639 29,600 1,397 Climbing Indianapolis Center
Wed 08:30:15 PM 39.0153 -88.1397 70° East 557 641 30,800 1,366 Climbing Indianapolis Center
Wed 08:31:17 PM 39.0686 -87.9489 70° East 562 647 32,400 1,065 Climbing Indianapolis Center
Wed 08:32:19 PM 39.1211 -87.7586 70° East 562 647 33,000 293 Climbing Indianapolis Center
Wed 08:33:20 PM 39.1803 -87.5422 71° East 573 659 33,000  Level Indianapolis Center
Wed 08:34:22 PM 39.2342 -87.3447 71° East 582 670 33,000  Level Indianapolis Center
Wed 08:35:23 PM 39.2869 -87.1456 71° East 584 672 33,000  Level Indianapolis Center
Wed 08:36:25 PM 39.3406 -86.9472 71° East 583 671 33,000  Level Indianapolis Center
Wed 08:37:26 PM 39.3931 -86.7483 71° East 582 670 33,000  Level Indianapolis Center
Wed 08:38:28 PM 39.4978 -86.6064 46° Northeast 548 631 33,000 -732 Level Indianapolis Center
Wed 08:39:29 PM 39.6244 -86.5128 30° Northeast 521 600 31,500 -1,463 Descending Indianapolis Center
Wed 08:40:31 PM 39.7289 -86.3478 51° Northeast 541 623 30,000 -732 Descending Indianapolis Center
Wed 08:41:32 PM 39.7767 -86.1561 72° East 551 634 30,000  Level Indianapolis Center
Wed 08:42:34 PM 39.8253 -85.9658 72° East 561 646 30,000  Level Indianapolis Center
Wed 08:43:35 PM 39.8742 -85.7675 72° East 570 656 30,000  Level Indianapolis Center
Wed 08:44:37 PM 39.9219 -85.5714 72° East 567 652 30,000 -390 Level Indianapolis Center
Wed 08:45:38 PM 39.9714 -85.3711 72° East 577 664 29,200 -927 Descending Indianapolis Center
Wed 08:46:40 PM 40.0292 -85.1383 72° East 575 662 28,100 -1,024 Descending Indianapolis Center
Wed 08:47:41 PM 40.0764 -84.9394 73° East 571 657 27,100 -976 Descending Indianapolis Center
Wed 08:48:43 PM 40.1192 -84.7550 73° East 563 648 26,100 -927 Descending Indianapolis Center
Wed 08:49:44 PM 40.1656 -84.5639 72° East 547 629 25,200 -1,770 Descending Indianapolis Center
Wed 08:50:45 PM 40.2103 -84.3761 73° East 536 617 22,500 -2,293 Descending Indianapolis Center
Wed 08:51:47 PM 40.2525 -84.1958 73° East 514 592 20,500 -1,415 Descending Indianapolis Center
Wed 08:52:48 PM 40.2911 -84.0250 73° East 488 562 19,600 -1,131 Descending Indianapolis Center
Wed 08:53:49 PM 40.3256 -83.8492 76° East 492 566 18,200 -1,805 Descending Indianapolis Center
Wed 08:54:51 PM 40.3583 -83.6867 75° East 453 521 15,900 -2,523 Descending Indianapolis Center
Wed 08:55:36 PM 40.3819 -83.5614 76° East 400 460 13,700 -2,557 Descending Indianapolis Center
Wed 08:55:52 PM 40.3872 -83.5383 73° East 419 482 13,300 -2,444 Descending Indianapolis Center
Wed 08:56:30 PM 40.4017 -83.4325 80° East 384 442 11,500 -2,262 Descending Indianapolis Center
Wed 08:56:53 PM 40.3978 -83.3981 98° East 400 460 11,000 -918 Descending Indianapolis Center
Wed 08:57:55 PM 40.3567 -83.2764 114° Southeast 363 418 10,200 -606 Descending Indianapolis Center
Wed 08:58:32 PM 40.3250 -83.1822 114° Southeast 373 429 10,000 -295 Descending Indianapolis Center
Wed 08:58:56 PM 40.3147 -83.1514 114° Southeast 369 425 9,900  Descending Indianapolis Center
Wed 08:59:27 PM 40.2889 -83.0714 113° Southeast 361 415 10,000  Climbing Indianapolis Center
Wed 08:59:57 PM 40.2664 -83.0078 115° Southeast 366 421 9,900 -182 Descending Indianapolis Center
Wed 09:00:33 PM 40.2450 -82.9461 114° Southeast 343 395 9,800 -774 Descending Indianapolis Center
Wed 09:00:59 PM 40.2292 -82.8947 112° Southeast 340 391 9,100 -1,377 Descending Indianapolis Center
Wed 09:01:34 PM 40.2103 -82.8411 115° Southeast 309 356 8,400 -1,180 Descending Indianapolis Center
Wed 09:02:00 PM 40.1942 -82.7947 114° Southeast 307 353 7,900 -1,279 Descending Indianapolis Center
Wed 09:02:35 PM 40.1561 -82.7722 156° South 297 342 7,100 -1,672 Descending Indianapolis Center
Wed 09:03:01 PM 40.1189 -82.7683 175° South 284 327 6,200 -1,700 Descending Indianapolis Center
Wed 09:03:35 PM 40.0761 -82.7469 159° South 278 320 5,400 -1,258 Descending Indianapolis Center
Wed 09:04:03 PM 40.0486 -82.7278 152° Southeast 278 320 4,900 -885 Descending Indianapolis Center
Wed 09:04:36 PM 40.0097 -82.7069 158° South 256 295 4,500 -787 Descending Indianapolis Center
Wed 09:05:04 PM 39.9847 -82.7067 180° South 248 285 4,100 -985 Descending Indianapolis Center
Wed 09:05:43 PM 39.9786 -82.7361 255° West 167 192 3,400 -1,180 Descending Indianapolis Center
Wed 09:06:05 PM 39.9819 -82.7506 287° West 176 203 2,900 -1,100 Descending Indianapolis Center
Wed 09:06:43 PM 39.9883 -82.7781 287° West 122 140 2,300 -871 Descending Indianapolis Center
Wed 09:07:07 PM 39.9894 -82.7933 275° West 135 155 2,000 -590 Descending Indianapolis Center
Wed 09:07:44 PM 39.9897 -82.8217 271° West 139 160 1,700 -590 Descending Indianapolis Center
Wed 09:08:08 PM 39.9911 -82.8378 276° West 126 145 1,400 -689 Descending Indianapolis Center
Wed 09:08:45 PM 39.9928 -82.8683 274° West 137 158 1,000 -295 Descending Indianapolis Center
Wed 09:09:09 PM 39.9944 -82.8875 276° West 125 144 1,100 250 Climbing Indianapolis Center

Login

Don't have an account? Register now (free) for customized features, flight alerts, and more!